Terminal Aerodrome Forecast
Issued by NWS

Home | Current Version | Previous Version | Text Only | Print | Product List | Glossary On
Versions: 1 2 3 4 5 6 7 8 9 10 11 12 13 14
593
FTUS45 KREV 180535
TAFMMH
TAF
KMMH 180535Z 1806/1906 VRB03KT P6SM SCT100 BKN150
     FM181200 20008KT P6SM SCT090 BKN100 WS020/23030KT
     FM182100 19012G23KT P6SM VCSH BKN080 OVC120 WS015/23040KT
     FM190300 19015G25KT 3SM -SN BKN025 OVC040=

USA.gov is the U.S. government's official web portal to all federal, state and local government web resources and services.